BAW1A ENBR-EGLL
Flight info
| Callsign | BAW1A |
|---|---|
| Flight time | N/A |
| Altitude | 35000 |
| Route | TUXIL4D TUXIL DCT ZOL DCT ATNAK/N0433F360 DCT TIPAN DCT WECOW DCT BINBO DCT AKOKO N866 BUKUT P7 BARMI BARMI1H |
| Aircraft | A319/M-VGD/A |
Departure
| Time | 2026-04-28 16:51 |
|---|---|
| Airport | Bergen Airport, Flesland (ENBR) |
Arrival
| Time | N/A |
|---|---|
| Airport | London Heathrow Airport (EGLL) |
| Time | Latitude | Longitude | Altitude | Speed | Heading |
|---|---|---|---|---|---|
| 2026-04-28 16:16 | 60.28930 | 5.22568 | 171 ft | 0 kts | 107° |
| 2026-04-28 16:40 | 60.28930 | 5.22567 | 171 ft | 0 kts | 107° |
| 2026-04-28 16:41 | 60.28931 | 5.22564 | 171 ft | 0 kts | 107° |
| 2026-04-28 16:41 | 60.28932 | 5.22555 | 171 ft | 0 kts | 107° |
| 2026-04-28 16:42 | 60.28933 | 5.22551 | 171 ft | 0 kts | 107° |
| 2026-04-28 16:42 | 60.28931 | 5.22532 | 172 ft | 1 kts | 73° |
| 2026-04-28 16:42 | 60.28931 | 5.22504 | 172 ft | 2 kts | 94° |
| 2026-04-28 16:43 | 60.28931 | 5.22474 | 171 ft | 2 kts | 90° |
| 2026-04-28 16:43 | 60.28931 | 5.22444 | 170 ft | 2 kts | 91° |
| 2026-04-28 16:43 | 60.28931 | 5.22414 | 169 ft | 2 kts | 91° |
| 2026-04-28 16:43 | 60.28931 | 5.22399 | 168 ft | 0 kts | 101° |
| 2026-04-28 16:44 | 60.28933 | 5.22392 | 167 ft | 0 kts | 158° |
| 2026-04-28 16:44 | 60.28943 | 5.22391 | 167 ft | 0 kts | 176° |
| 2026-04-28 16:44 | 60.28946 | 5.22391 | 167 ft | 0 kts | 172° |
| 2026-04-28 16:46 | 60.28945 | 5.22391 | 167 ft | 1 kts | 172° |
| 2026-04-28 16:46 | 60.28909 | 5.22402 | 167 ft | 7 kts | 170° |
| 2026-04-28 16:47 | 60.28846 | 5.22424 | 168 ft | 10 kts | 170° |
| 2026-04-28 16:47 | 60.28760 | 5.22457 | 167 ft | 14 kts | 170° |
| 2026-04-28 16:47 | 60.28686 | 5.22480 | 166 ft | 10 kts | 170° |
| 2026-04-28 16:47 | 60.28594 | 5.22508 | 163 ft | 16 kts | 169° |
| 2026-04-28 16:48 | 60.28473 | 5.22549 | 159 ft | 19 kts | 171° |
| 2026-04-28 16:48 | 60.28331 | 5.22588 | 154 ft | 17 kts | 189° |
| 2026-04-28 16:48 | 60.28269 | 5.22505 | 151 ft | 11 kts | 193° |
| 2026-04-28 16:48 | 60.28184 | 5.22516 | 150 ft | 12 kts | 161° |
| 2026-04-28 16:49 | 60.28099 | 5.22551 | 148 ft | 14 kts | 198° |
| 2026-04-28 16:49 | 60.28053 | 5.22447 | 143 ft | 0 kts | 268° |
| 2026-04-28 16:49 | 60.28052 | 5.22396 | 141 ft | 11 kts | 268° |
| 2026-04-28 16:49 | 60.28078 | 5.22237 | 135 ft | 15 kts | 337° |
| 2026-04-28 16:50 | 60.28119 | 5.22220 | 136 ft | 3 kts | 352° |
| 2026-04-28 16:50 | 60.28325 | 5.22156 | 145 ft | 63 kts | 349° |
| 2026-04-28 16:50 | 60.28983 | 5.21930 | 160 ft | 127 kts | 350° |
| 2026-04-28 16:50 | 60.29994 | 5.21588 | 420 ft | 157 kts | 348° |
| 2026-04-28 16:51 | 60.31050 | 5.21224 | 1148 ft | 157 kts | 350° |
| 2026-04-28 16:51 | 60.32078 | 5.20901 | 2009 ft | 150 kts | 351° |
| 2026-04-28 16:51 | 60.33130 | 5.20572 | 2488 ft | 162 kts | 351° |
| 2026-04-28 16:51 | 60.34305 | 5.20197 | 2896 ft | 179 kts | 351° |
| 2026-04-28 16:52 | 60.35590 | 5.19777 | 3260 ft | 200 kts | 351° |
| 2026-04-28 16:52 | 60.37007 | 5.19306 | 3737 ft | 219 kts | 351° |
| 2026-04-28 16:52 | 60.38569 | 5.18784 | 4255 ft | 237 kts | 351° |
| 2026-04-28 16:52 | 60.40229 | 5.18224 | 4930 ft | 248 kts | 351° |
| 2026-04-28 16:53 | 60.41916 | 5.17652 | 5562 ft | 250 kts | 351° |
| 2026-04-28 16:53 | 60.43633 | 5.17070 | 5911 ft | 250 kts | 351° |
| 2026-04-28 16:53 | 60.45347 | 5.16487 | 5983 ft | 251 kts | 350° |
| 2026-04-28 16:53 | 60.46970 | 5.15264 | 5984 ft | 253 kts | 327° |
| 2026-04-28 16:54 | 60.48160 | 5.12695 | 5996 ft | 258 kts | 302° |
| 2026-04-28 16:54 | 60.48697 | 5.09182 | 6020 ft | 265 kts | 277° |
| 2026-04-28 16:54 | 60.48530 | 5.05449 | 5994 ft | 269 kts | 264° |
| 2026-04-28 16:54 | 60.48040 | 5.01776 | 5975 ft | 274 kts | 245° |
| 2026-04-28 16:55 | 60.46799 | 4.98836 | 5980 ft | 280 kts | 217° |
| 2026-04-28 16:55 | 60.45019 | 4.97404 | 5966 ft | 283 kts | 187° |
| 2026-04-28 16:55 | 60.43045 | 4.97548 | 5993 ft | 284 kts | 173° |
| 2026-04-28 16:55 | 60.41111 | 4.98047 | 5996 ft | 284 kts | 172° |
| 2026-04-28 16:56 | 60.39151 | 4.98563 | 5997 ft | 284 kts | 173° |
| 2026-04-28 16:56 | 60.37185 | 4.99038 | 5998 ft | 285 kts | 173° |
| 2026-04-28 16:56 | 60.35225 | 4.99474 | 5998 ft | 285 kts | 173° |
| 2026-04-28 16:56 | 60.33246 | 4.99896 | 5998 ft | 285 kts | 173° |
| 2026-04-28 16:57 | 60.31297 | 5.00302 | 5999 ft | 285 kts | 173° |
| 2026-04-28 16:57 | 60.29323 | 5.00711 | 5998 ft | 285 kts | 173° |
| 2026-04-28 16:57 | 60.27365 | 5.01183 | 5998 ft | 285 kts | 170° |
| 2026-04-28 16:57 | 60.25407 | 5.01910 | 5999 ft | 285 kts | 168° |
| 2026-04-28 16:58 | 60.23492 | 5.02675 | 5999 ft | 285 kts | 168° |
| 2026-04-28 16:58 | 60.21534 | 5.03460 | 5998 ft | 285 kts | 168° |
| 2026-04-28 16:58 | 60.19598 | 5.04231 | 5998 ft | 284 kts | 168° |
| 2026-04-28 16:58 | 60.17664 | 5.05000 | 5997 ft | 284 kts | 167° |
| 2026-04-28 16:59 | 60.15752 | 5.06020 | 5997 ft | 283 kts | 160° |
| 2026-04-28 16:59 | 60.13930 | 5.07428 | 5999 ft | 283 kts | 155° |
| 2026-04-28 16:59 | 60.12133 | 5.08975 | 5999 ft | 283 kts | 155° |
| 2026-04-28 16:59 | 60.10334 | 5.10544 | 5998 ft | 284 kts | 155° |
| 2026-04-28 17:00 | 60.08516 | 5.12124 | 5999 ft | 284 kts | 155° |
| 2026-04-28 17:00 | 60.06718 | 5.13677 | 5998 ft | 283 kts | 155° |
| 2026-04-28 17:00 | 60.04904 | 5.15237 | 5999 ft | 284 kts | 155° |
| 2026-04-28 17:00 | 60.03095 | 5.16787 | 5999 ft | 284 kts | 155° |
| 2026-04-28 17:01 | 60.01278 | 5.18342 | 5999 ft | 284 kts | 155° |
| 2026-04-28 17:01 | 59.99453 | 5.19903 | 5998 ft | 285 kts | 155° |
| 2026-04-28 17:01 | 59.97628 | 5.21463 | 6237 ft | 291 kts | 155° |
| 2026-04-28 17:01 | 59.95773 | 5.23043 | 7147 ft | 293 kts | 155° |
| 2026-04-28 17:02 | 59.93902 | 5.24632 | 8129 ft | 294 kts | 155° |
| 2026-04-28 17:02 | 59.92030 | 5.26221 | 8956 ft | 299 kts | 154° |
| 2026-04-28 17:02 | 59.90112 | 5.27849 | 9752 ft | 305 kts | 154° |
| 2026-04-28 17:02 | 59.88166 | 5.29491 | 10499 ft | 310 kts | 154° |
| 2026-04-28 17:03 | 59.84085 | 5.32930 | 11553 ft | 335 kts | 153° |
| 2026-04-28 17:03 | 59.81916 | 5.34746 | 12193 ft | 342 kts | 155° |
| 2026-04-28 17:03 | 59.79639 | 5.36161 | 12885 ft | 348 kts | 163° |
| 2026-04-28 17:04 | 59.74775 | 5.37327 | 14169 ft | 361 kts | 173° |
| 2026-04-28 17:04 | 59.72279 | 5.37684 | 14801 ft | 365 kts | 173° |
| 2026-04-28 17:05 | 59.67167 | 5.38463 | 16064 ft | 373 kts | 172° |
| 2026-04-28 17:05 | 59.64602 | 5.38903 | 16685 ft | 376 kts | 171° |
| 2026-04-28 17:05 | 59.61980 | 5.39535 | 17292 ft | 380 kts | 169° |
| 2026-04-28 17:06 | 59.56728 | 5.40880 | 18447 ft | 388 kts | 169° |
| 2026-04-28 17:06 | 59.54055 | 5.41568 | 18995 ft | 392 kts | 169° |
| 2026-04-28 17:06 | 59.48632 | 5.42947 | 20112 ft | 399 kts | 169° |
| 2026-04-28 17:07 | 59.45891 | 5.43639 | 20641 ft | 403 kts | 170° |
| 2026-04-28 17:07 | 59.43090 | 5.44341 | 21187 ft | 405 kts | 169° |
| 2026-04-28 17:07 | 59.40302 | 5.45065 | 21756 ft | 407 kts | 168° |
| 2026-04-28 17:07 | 59.37524 | 5.46022 | 22265 ft | 409 kts | 166° |
| 2026-04-28 17:08 | 59.34743 | 5.47035 | 22747 ft | 412 kts | 166° |
| 2026-04-28 17:08 | 59.31924 | 5.48068 | 23244 ft | 415 kts | 166° |
| 2026-04-28 17:08 | 59.29092 | 5.49105 | 23726 ft | 418 kts | 166° |
| 2026-04-28 17:08 | 59.26239 | 5.50145 | 24176 ft | 422 kts | 166° |
| 2026-04-28 17:09 | 59.23328 | 5.51197 | 24654 ft | 425 kts | 166° |
| 2026-04-28 17:09 | 59.20443 | 5.52244 | 25123 ft | 428 kts | 166° |
| 2026-04-28 17:09 | 59.17506 | 5.53305 | 25584 ft | 431 kts | 166° |
| 2026-04-28 17:09 | 59.14590 | 5.54355 | 26036 ft | 434 kts | 166° |
| 2026-04-28 17:10 | 59.11612 | 5.55430 | 26466 ft | 437 kts | 166° |
| 2026-04-28 17:10 | 59.08625 | 5.56507 | 26889 ft | 440 kts | 166° |
| 2026-04-28 17:10 | 59.05614 | 5.57589 | 27324 ft | 443 kts | 166° |
| 2026-04-28 17:10 | 59.02586 | 5.58673 | 27716 ft | 446 kts | 166° |
| 2026-04-28 17:11 | 58.99541 | 5.59762 | 28118 ft | 449 kts | 166° |
| 2026-04-28 17:11 | 58.96471 | 5.60861 | 28517 ft | 451 kts | 166° |
| 2026-04-28 17:11 | 58.93423 | 5.61949 | 28880 ft | 454 kts | 166° |
| 2026-04-28 17:11 | 58.90286 | 5.62929 | 29227 ft | 459 kts | 170° |
| 2026-04-28 17:12 | 58.87112 | 5.63270 | 29555 ft | 464 kts | 178° |
| 2026-04-28 17:12 | 58.83867 | 5.62843 | 29898 ft | 468 kts | 186° |
| 2026-04-28 17:12 | 58.80669 | 5.61802 | 30237 ft | 471 kts | 189° |
| 2026-04-28 17:12 | 58.77476 | 5.60606 | 30565 ft | 473 kts | 190° |
| 2026-04-28 17:13 | 58.74263 | 5.59388 | 30887 ft | 476 kts | 190° |
| 2026-04-28 17:13 | 58.71008 | 5.58173 | 31230 ft | 477 kts | 189° |
| 2026-04-28 17:13 | 58.67770 | 5.56987 | 31644 ft | 477 kts | 189° |
| 2026-04-28 17:13 | 58.64522 | 5.55814 | 32034 ft | 477 kts | 189° |
| 2026-04-28 17:14 | 58.61248 | 5.54645 | 32432 ft | 477 kts | 189° |
| 2026-04-28 17:14 | 58.58022 | 5.53496 | 32811 ft | 476 kts | 189° |
| 2026-04-28 17:14 | 58.54773 | 5.52350 | 33194 ft | 476 kts | 189° |
| 2026-04-28 17:14 | 58.51524 | 5.51208 | 33588 ft | 475 kts | 189° |
| 2026-04-28 17:15 | 58.48291 | 5.50065 | 33908 ft | 476 kts | 189° |
| 2026-04-28 17:15 | 58.45065 | 5.48930 | 34160 ft | 478 kts | 189° |
| 2026-04-28 17:15 | 58.41791 | 5.47782 | 34434 ft | 480 kts | 189° |
| 2026-04-28 17:15 | 58.38512 | 5.46632 | 34717 ft | 481 kts | 189° |
| 2026-04-28 17:16 | 58.35218 | 5.45479 | 34937 ft | 483 kts | 189° |
| 2026-04-28 17:16 | 58.31952 | 5.44340 | 35178 ft | 484 kts | 189° |
| 2026-04-28 17:16 | 58.28672 | 5.43199 | 35401 ft | 484 kts | 189° |
| 2026-04-28 17:16 | 58.25333 | 5.42038 | 35458 ft | 484 kts | 189° |
| 2026-04-28 17:17 | 58.18778 | 5.39765 | 35473 ft | 484 kts | 189° |
| 2026-04-28 17:17 | 58.12178 | 5.37491 | 35467 ft | 484 kts | 189° |
| 2026-04-28 17:18 | 58.05547 | 5.35206 | 35471 ft | 484 kts | 189° |
| 2026-04-28 17:18 | 57.98971 | 5.32950 | 35462 ft | 491 kts | 189° |
| 2026-04-28 17:19 | 57.92129 | 5.30616 | 35458 ft | 506 kts | 189° |
| 2026-04-28 17:19 | 57.85162 | 5.28249 | 35465 ft | 517 kts | 188° |
| 2026-04-28 17:20 | 57.79255 | 5.26253 | 35471 ft | 518 kts | 188° |
| 2026-04-28 17:20 | 57.71045 | 5.23488 | 35473 ft | 518 kts | 188° |
| 2026-04-28 17:21 | 57.64010 | 5.21124 | 35475 ft | 517 kts | 188° |
| 2026-04-28 17:22 | 57.53388 | 5.17569 | 35477 ft | 517 kts | 188° |
| 2026-04-28 17:22 | 57.46368 | 5.15233 | 35476 ft | 517 kts | 188° |
| 2026-04-28 17:23 | 57.35777 | 5.11728 | 35480 ft | 516 kts | 188° |
| 2026-04-28 17:23 | 57.28746 | 5.09411 | 35476 ft | 516 kts | 188° |
| 2026-04-28 17:24 | 57.21685 | 5.07094 | 35480 ft | 517 kts | 188° |
| 2026-04-28 17:24 | 57.14665 | 5.04800 | 35478 ft | 516 kts | 188° |
| 2026-04-28 17:25 | 57.04102 | 5.01370 | 35480 ft | 516 kts | 188° |
| 2026-04-28 17:26 | 56.97037 | 4.99161 | 35479 ft | 515 kts | 187° |
| 2026-04-28 17:26 | 56.90006 | 4.97303 | 35480 ft | 514 kts | 186° |
| 2026-04-28 17:27 | 56.82941 | 4.95486 | 35477 ft | 514 kts | 186° |
| 2026-04-28 17:27 | 56.75901 | 4.93653 | 35476 ft | 514 kts | 186° |
| 2026-04-28 17:28 | 56.68882 | 4.91821 | 35470 ft | 513 kts | 186° |
| 2026-04-28 17:28 | 56.58333 | 4.89063 | 35472 ft | 512 kts | 186° |
| 2026-04-28 17:29 | 56.51304 | 4.87238 | 35472 ft | 512 kts | 186° |
| 2026-04-28 17:30 | 56.40747 | 4.84509 | 35472 ft | 512 kts | 186° |
| 2026-04-28 17:30 | 56.30252 | 4.81803 | 35458 ft | 512 kts | 186° |
| 2026-04-28 17:31 | 56.19704 | 4.79101 | 35473 ft | 511 kts | 186° |
| 2026-04-28 17:32 | 56.09197 | 4.76431 | 35482 ft | 511 kts | 186° |
| 2026-04-28 17:32 | 56.02220 | 4.74664 | 35471 ft | 510 kts | 186° |
| 2026-04-28 17:33 | 55.95203 | 4.72889 | 35477 ft | 510 kts | 186° |
| 2026-04-28 17:33 | 55.89375 | 4.71422 | 35476 ft | 510 kts | 186° |
| 2026-04-28 17:34 | 55.81193 | 4.69377 | 35470 ft | 509 kts | 185° |
| 2026-04-28 17:34 | 55.74211 | 4.67639 | 35477 ft | 510 kts | 186° |
| 2026-04-28 17:35 | 55.67226 | 4.65905 | 35463 ft | 510 kts | 186° |
| 2026-04-28 17:35 | 55.60241 | 4.64170 | 35468 ft | 509 kts | 186° |
| 2026-04-28 17:36 | 55.53256 | 4.62445 | 35466 ft | 508 kts | 186° |
| 2026-04-28 17:36 | 55.46292 | 4.60729 | 35452 ft | 508 kts | 185° |
| 2026-04-28 17:37 | 55.39324 | 4.59022 | 35450 ft | 508 kts | 185° |
| 2026-04-28 17:37 | 55.32360 | 4.57320 | 35448 ft | 507 kts | 185° |
| 2026-04-28 17:38 | 55.25373 | 4.55618 | 35448 ft | 507 kts | 185° |
| 2026-04-28 17:38 | 55.18456 | 4.53940 | 35448 ft | 507 kts | 185° |
| 2026-04-28 17:39 | 55.11502 | 4.52256 | 35443 ft | 506 kts | 185° |
| 2026-04-28 17:40 | 55.02195 | 4.50017 | 35455 ft | 506 kts | 185° |
| 2026-04-28 17:40 | 54.97600 | 4.48915 | 35445 ft | 506 kts | 185° |
| 2026-04-28 17:41 | 54.80773 | 4.44905 | 35445 ft | 506 kts | 185° |
| 2026-04-28 17:42 | 54.72664 | 4.42982 | 35445 ft | 505 kts | 185° |
| 2026-04-28 17:43 | 54.59616 | 4.38335 | 35435 ft | 508 kts | 196° |
| 2026-04-28 17:43 | 54.53108 | 4.33878 | 35429 ft | 509 kts | 204° |